IkaScore Players IkaScore Alliances






Support IkaScore

Please donate to
me@ikascore.com

using Skrill
Latvia Epsilon
Ikariam players: 50
AverageTotal
Kopējais punktu skaits: 23745961 1187298031
Celtnieki: 19670755 983537771
Celtniecības līmeņi: 2799 4592473
Zinātnieki: 767293 1259127013
Pētniecības līmenis: 284 466504
Ģenerāļi: 11695 19192184
Zelts: 35951493 1797574626
Uzbrukuma punkti: 7449 12224566
Aizsardzības punkti: 9482 15560495
Tirdzniecības statistika: 4635 7606773
Resursi: 14783292 739164599
ziedot: 389894 639816718
Score vulnerability: 187330 307408125
Gold vulnerability: 5203 8537557
Population: 16935 27789821
Donations to score: 335452 550477459

Digg! Delicious! IkaScore homepage
Players - Kopējais punktu skaits
  per page  Next page >>
Rank Ikariam player Alliance Score Type Score Updated
1 Priekšnieks I-sHiNe EŽI Kopējais punktu skaits 95138848 21/11 18:50
2 Liesmu pavēlnieks Ezīcz EŽI Kopējais punktu skaits 91779698 21/11 18:50
3 FOX03 EŽI Kopējais punktu skaits 58695434 21/11 18:50
4 Admirālis Sipango EŽI Kopējais punktu skaits 58240059 21/11 18:50
5 Admirālis Orākuls NRWL Kopējais punktu skaits 54112300 21/11 18:50
6 Dievu dzērienu servētājs Lācīc EŽI Kopējais punktu skaits 50219944 21/11 18:50
7 Karaļa Mēdosa mantzinis Larry Laffer SOG Kopējais punktu skaits 49613952 21/11 18:50
8 Pirātu karalis pumba DESA Kopējais punktu skaits 47631330 21/11 18:50
Support IkaScore

Please donate to    me@ikascore.com    using Skrill
9 Ģēnijs kvferma KF P Kopējais punktu skaits 47415029 21/11 18:50
10 Kimk EŽI Kopējais punktu skaits 44044069 21/11 18:50
11 Marmora magnāts Patrons K15R Kopējais punktu skaits 43612127 21/11 18:50
12 CIPO LAT Kopējais punktu skaits 38841162 21/11 18:50
13 Smalkās mākslas meistars Dalas EŽI Kopējais punktu skaits 38531644 21/11 18:50
14 Mākslinieks sleeping_awake EŽI Kopējais punktu skaits 37531845 21/11 18:50
15 zzzz new Kopējais punktu skaits 35893237 21/11 18:50
16 Senais Ezis EŽI Kopējais punktu skaits 34361721 21/11 18:50
17 Cricket EŽI Kopējais punktu skaits 34223109 21/11 18:50
18 Kristāla magnāts Tūrists NEZIN Kopējais punktu skaits 33903953 21/11 18:50
19 Laboratorijas žurka kasuks SPARS Kopējais punktu skaits 33617486 21/11 18:50
20 klibais2 LAT Kopējais punktu skaits 33267936 21/11 18:50
21 gt99 LAT Kopējais punktu skaits 31126476 21/11 18:50
22 Kaislīgs kolekcionārs Valkirs KidLV Kopējais punktu skaits 30136746 21/11 18:50
23 gt99lv LAT Kopējais punktu skaits 29688611 21/11 18:50
24 Heņa79 Kopējais punktu skaits 29558514 21/11 18:50
25 Giekalitis LAT Kopējais punktu skaits 29360226 21/11 18:50
26 Vēstnieks MIL NRWL Kopējais punktu skaits 29212207 21/11 18:50
27 valdisss KF P Kopējais punktu skaits 29178678 21/11 18:50
28 dragoo LAT Kopējais punktu skaits 28996807 21/11 18:50
29 ronda P-Z Kopējais punktu skaits 28919773 21/11 18:50
30 Patrons Al_Cohol SPARS Kopējais punktu skaits 28418325 21/11 18:50
31 nike air 13 -F-2 Kopējais punktu skaits 28131127 21/11 18:50
32 Mākslinieks KVL Mc Murss Kopējais punktu skaits 27639688 21/11 18:50
33 Predator55 NEZIN Kopējais punktu skaits 27469879 21/11 18:50
34 Zelimhans PO- Kopējais punktu skaits 27220510 21/11 18:50
35 5even EŽI Kopējais punktu skaits 27007938 21/11 18:50
36 Apollons sezams Kopējais punktu skaits 26533239 21/11 18:50
37 Vells KidLV Kopējais punktu skaits 26362105 21/11 18:50
38 Orkla KidLV Kopējais punktu skaits 26103015 21/11 18:50
39 Marmora magnāts Lord Uhtred K15R Kopējais punktu skaits 25847726 21/11 18:50
40 bankieriic LAT Kopējais punktu skaits 25376402 21/11 18:50
41 Chupacabra P-Z Kopējais punktu skaits 25365694 21/11 18:50
42 Kristāla magnāts romina LAT Kopējais punktu skaits 25156391 21/11 18:50
43 Imperators Runcis Killroy K15R Kopējais punktu skaits 25058111 21/11 18:50
44 Cooper NEZIN Kopējais punktu skaits 25034326 21/11 18:50
45 Maratonists Xander SOG Kopējais punktu skaits 24247172 21/11 18:50
46 atonkuls Kopējais punktu skaits 24023330 21/11 18:50
47 Diversants P-Z Kopējais punktu skaits 23816362 21/11 18:50
48 U-Boat EŽI Kopējais punktu skaits 23800194 21/11 18:50
49 Norcis Kopējais punktu skaits 23767729 21/11 18:50
50 Sīzifs digitteks NEZIN Kopējais punktu skaits 23661273 21/11 18:50
51 Runcis Draxo K15R Kopējais punktu skaits 23626064 21/11 18:50
52 Detektīvs Čaks Noriss NRWL Kopējais punktu skaits 23436113 21/11 18:50
53 internal NRWL Kopējais punktu skaits 23388461 21/11 18:50
54 kristzz LAT Kopējais punktu skaits 23293560 21/11 18:50
55 deepangel Kopējais punktu skaits 23040334 21/11 18:50
56 nike air P-Z Kopējais punktu skaits 22982393 21/11 18:50
57 Jaffa EŽI Kopējais punktu skaits 22843036 21/11 18:50
58 Apple Kopējais punktu skaits 22731599 21/11 18:50
59 rondaa LAT Kopējais punktu skaits 22660075 21/11 18:50
60 naudigais KidLV Kopējais punktu skaits 22138617 21/11 18:50
61 Jurka KidLV Kopējais punktu skaits 22115768 21/11 18:50
62 Ahilleja čempions Lemekkins ZOOM Kopējais punktu skaits 22097720 21/11 18:50
63 Gubernators Runcis TulikDew NRWL Kopējais punktu skaits 21623231 21/11 18:50
64 123 123e Kopējais punktu skaits 21404963 21/11 18:50
65 SMārtiņš LVS- Kopējais punktu skaits 21096810 21/11 18:50
66 Melnā tirgus karalis LiFe NEZIN Kopējais punktu skaits 21060715 21/11 18:50
67 Kaupo P-Z Kopējais punktu skaits 21020871 21/11 18:50
68 dragn P-Z Kopējais punktu skaits 20978671 21/11 18:50
69 Apollons -RīdžA- NEZIN Kopējais punktu skaits 20777882 21/11 18:50
70 Inesus LAT Kopējais punktu skaits 20656070 21/11 18:50
71 -Edgars- RedS Kopējais punktu skaits 20471279 21/11 18:50
72 Admirālis Trencis DESA Kopējais punktu skaits 20142451 21/11 18:50
73 zāļuks LAT Kopējais punktu skaits 20091405 21/11 18:50
74 chikago ZOOM Kopējais punktu skaits 19775648 21/11 18:50
75 janisz Kopējais punktu skaits 19703799 21/11 18:50
76 Čingishans KidLV Kopējais punktu skaits 19531531 21/11 18:50
77 -flabers- LAT Kopējais punktu skaits 19472969 21/11 18:50
78 Rols PO- Kopējais punktu skaits 19460688 21/11 18:50
79 Ziloņkaula torņa sargs wilsis EŽI Kopējais punktu skaits 19386178 21/11 18:50
80 čingishans_D P-Z Kopējais punktu skaits 19316659 21/11 18:50
81 Pirātu kapteinis IVARS97 Z P Kopējais punktu skaits 19225607 21/11 18:50
82 Detektīvs Her0 NEZIN Kopējais punktu skaits 19178347 21/11 18:50
83 Vīna magnāts jaudigais NEZIN Kopējais punktu skaits 19090385 21/11 18:50
84 Jasons NEZIN Kopējais punktu skaits 18939890 21/11 18:50
85 Karaļa Mēdosa mantzinis Lucifer NRWL Kopējais punktu skaits 18895241 21/11 18:50
86 Čingishans_G KidLV Kopējais punktu skaits 18858708 21/11 18:50
87 Mākslinieks Runcis Odze K15R Kopējais punktu skaits 18845098 21/11 18:50
88 Darkness Kopējais punktu skaits 18575958 21/11 18:50
89 Legacy -FX- Kopējais punktu skaits 18308127 21/11 18:50
90 Gubernators Amun-Ra LAT Kopējais punktu skaits 18220563 21/11 18:50
91 Podi LAT Kopējais punktu skaits 18077038 21/11 18:50
92 Klaids PO- Kopējais punktu skaits 18024621 21/11 18:50
93 Čingishans_B KidLV Kopējais punktu skaits 17975048 21/11 18:50
94 kukers123 LAT Kopējais punktu skaits 17907527 21/11 18:50
95 Vēstnieks Tihomir KidLV Kopējais punktu skaits 17885829 21/11 18:50
96 kukers P-Z Kopējais punktu skaits 17721434 21/11 18:50
97 Ozolss LAT Kopējais punktu skaits 17679112 21/11 18:50
98 ZARNASKUNGS -AHA- Kopējais punktu skaits 17654021 21/11 18:50
99 vkakis D-H Kopējais punktu skaits 17559731 21/11 18:50
100 Marmora magnāts drink_it RedS Kopējais punktu skaits 17201619 21/11 18:50
  per page  Next page >>

Copyright © 2010 IkaScore.com All Rights Reserved | Disclaimer